sensor_id;sensor_type;location;lat;lon;timestamp;P1;durP1;ratioP1;P2;durP2;ratioP2
21254;SDS011;10785;50.674;17.954;2022-07-10T00:00:26;9.27;;;5.20;;
21254;SDS011;10785;50.674;17.954;2022-07-10T00:02:55;8.00;;;5.25;;
21254;SDS011;10785;50.674;17.954;2022-07-10T00:05:24;13.00;;;5.60;;
21254;SDS011;10785;50.674;17.954;2022-07-10T00:07:53;13.25;;;5.18;;
21254;SDS011;10785;50.674;17.954;2022-07-10T00:10:23;7.88;;;4.40;;
21254;SDS011;10785;50.674;17.954;2022-07-10T00:12:52;7.45;;;5.07;;
21254;SDS011;10785;50.674;17.954;2022-07-10T00:15:20;15.85;;;4.63;;
21254;SDS011;10785;50.674;17.954;2022-07-10T00:17:49;4.72;;;3.80;;
21254;SDS011;10785;50.674;17.954;2022-07-10T00:20:18;5.90;;;4.03;;
21254;SDS011;10785;50.674;17.954;2022-07-10T00:22:46;5.88;;;3.88;;
21254;SDS011;10785;50.674;17.954;2022-07-10T00:25:15;6.95;;;3.47;;
21254;SDS011;10785;50.674;17.954;2022-07-10T00:27:45;4.63;;;3.17;;
21254;SDS011;10785;50.674;17.954;2022-07-10T00:30:13;7.10;;;3.58;;
21254;SDS011;10785;50.674;17.954;2022-07-10T00:32:42;5.55;;;3.22;;
21254;SDS011;10785;50.674;17.954;2022-07-10T00:35:11;7.78;;;3.42;;
21254;SDS011;10785;50.674;17.954;2022-07-10T00:37:39;4.40;;;3.10;;
21254;SDS011;10785;50.674;17.954;2022-07-10T00:40:08;7.95;;;3.25;;
21254;SDS011;10785;50.674;17.954;2022-07-10T00:42:36;3.67;;;3.25;;
21254;SDS011;10785;50.674;17.954;2022-07-10T00:45:07;4.80;;;3.67;;
21254;SDS011;10785;50.674;17.954;2022-07-10T00:47:37;5.18;;;4.20;;
21254;SDS011;10785;50.674;17.954;2022-07-10T00:50:06;11.40;;;4.72;;
21254;SDS011;10785;50.674;17.954;2022-07-10T00:52:35;5.55;;;4.47;;
21254;SDS011;10785;50.674;17.954;2022-07-10T00:55:06;6.22;;;4.10;;
21254;SDS011;10785;50.674;17.954;2022-07-10T00:57:37;5.38;;;4.20;;
21254;SDS011;10785;50.674;17.954;2022-07-10T01:00:08;6.68;;;4.22;;
21254;SDS011;10785;50.674;17.954;2022-07-10T01:02:39;6.28;;;3.88;;
21254;SDS011;10785;50.674;17.954;2022-07-10T01:05:10;4.75;;;3.65;;
21254;SDS011;10785;50.674;17.954;2022-07-10T01:07:40;3.88;;;3.15;;
21254;SDS011;10785;50.674;17.954;2022-07-10T01:10:08;4.25;;;3.20;;
21254;SDS011;10785;50.674;17.954;2022-07-10T01:12:37;3.47;;;3.10;;
21254;SDS011;10785;50.674;17.954;2022-07-10T01:15:08;4.35;;;3.72;;
21254;SDS011;10785;50.674;17.954;2022-07-10T01:17:37;5.88;;;4.68;;
21254;SDS011;10785;50.674;17.954;2022-07-10T01:20:06;7.00;;;4.57;;
21254;SDS011;10785;50.674;17.954;2022-07-10T01:22:37;6.53;;;5.63;;
21254;SDS011;10785;50.674;17.954;2022-07-10T01:25:06;7.38;;;6.65;;
21254;SDS011;10785;50.674;17.954;2022-07-10T01:27:38;8.23;;;7.43;;
21254;SDS011;10785;50.674;17.954;2022-07-10T01:30:07;8.80;;;7.90;;
21254;SDS011;10785;50.674;17.954;2022-07-10T01:32:37;8.82;;;7.68;;
21254;SDS011;10785;50.674;17.954;2022-07-10T01:35:06;9.15;;;7.53;;
21254;SDS011;10785;50.674;17.954;2022-07-10T01:37:38;7.82;;;5.97;;
21254;SDS011;10785;50.674;17.954;2022-07-10T01:40:08;4.40;;;3.90;;
21254;SDS011;10785;50.674;17.954;2022-07-10T01:42:37;6.57;;;3.42;;
21254;SDS011;10785;50.674;17.954;2022-07-10T01:45:06;3.50;;;3.10;;
21254;SDS011;10785;50.674;17.954;2022-07-10T01:47:36;11.43;;;3.90;;
21254;SDS011;10785;50.674;17.954;2022-07-10T01:50:05;5.70;;;3.10;;
21254;SDS011;10785;50.674;17.954;2022-07-10T01:52:34;4.97;;;3.35;;
21254;SDS011;10785;50.674;17.954;2022-07-10T01:55:04;7.40;;;3.53;;
21254;SDS011;10785;50.674;17.954;2022-07-10T01:57:34;4.90;;;3.55;;
21254;SDS011;10785;50.674;17.954;2022-07-10T02:00:03;7.53;;;4.18;;
21254;SDS011;10785;50.674;17.954;2022-07-10T02:02:38;7.15;;;4.68;;
21254;SDS011;10785;50.674;17.954;2022-07-10T02:05:07;6.30;;;4.30;;
21254;SDS011;10785;50.674;17.954;2022-07-10T02:07:35;6.03;;;4.00;;
21254;SDS011;10785;50.674;17.954;2022-07-10T02:10:05;6.68;;;6.07;;
21254;SDS011;10785;50.674;17.954;2022-07-10T02:12:34;7.13;;;4.70;;
21254;SDS011;10785;50.674;17.954;2022-07-10T02:15:03;11.15;;;6.88;;
21254;SDS011;10785;50.674;17.954;2022-07-10T02:17:33;7.80;;;7.00;;
21254;SDS011;10785;50.674;17.954;2022-07-10T02:20:02;9.38;;;6.00;;
21254;SDS011;10785;50.674;17.954;2022-07-10T02:22:31;9.13;;;5.65;;
21254;SDS011;10785;50.674;17.954;2022-07-10T02:24:59;7.45;;;6.32;;
21254;SDS011;10785;50.674;17.954;2022-07-10T02:29:59;8.63;;;7.40;;
21254;SDS011;10785;50.674;17.954;2022-07-10T02:32:29;9.43;;;6.13;;
21254;SDS011;10785;50.674;17.954;2022-07-10T02:34:57;10.63;;;7.75;;
21254;SDS011;10785;50.674;17.954;2022-07-10T02:37:26;8.68;;;6.35;;
21254;SDS011;10785;50.674;17.954;2022-07-10T02:39:55;11.45;;;8.88;;
21254;SDS011;10785;50.674;17.954;2022-07-10T02:42:24;14.93;;;11.63;;
21254;SDS011;10785;50.674;17.954;2022-07-10T02:44:54;16.50;;;13.25;;
21254;SDS011;10785;50.674;17.954;2022-07-10T02:47:22;12.10;;;10.80;;
21254;SDS011;10785;50.674;17.954;2022-07-10T02:49:51;8.55;;;7.47;;
21254;SDS011;10785;50.674;17.954;2022-07-10T02:52:20;15.88;;;9.23;;
21254;SDS011;10785;50.674;17.954;2022-07-10T02:54:48;11.60;;;10.15;;
21254;SDS011;10785;50.674;17.954;2022-07-10T02:57:17;12.93;;;11.35;;
21254;SDS011;10785;50.674;17.954;2022-07-10T02:59:46;16.15;;;12.20;;
21254;SDS011;10785;50.674;17.954;2022-07-10T03:02:16;14.30;;;12.90;;
21254;SDS011;10785;50.674;17.954;2022-07-10T03:04:44;20.52;;;15.68;;
21254;SDS011;10785;50.674;17.954;2022-07-10T03:07:13;13.77;;;11.70;;
21254;SDS011;10785;50.674;17.954;2022-07-10T03:09:41;12.77;;;9.95;;
21254;SDS011;10785;50.674;17.954;2022-07-10T03:12:10;13.25;;;8.50;;
21254;SDS011;10785;50.674;17.954;2022-07-10T03:14:38;13.25;;;7.80;;
21254;SDS011;10785;50.674;17.954;2022-07-10T03:17:07;11.77;;;7.43;;
21254;SDS011;10785;50.674;17.954;2022-07-10T03:19:37;8.98;;;7.07;;
21254;SDS011;10785;50.674;17.954;2022-07-10T03:22:06;11.82;;;7.57;;
21254;SDS011;10785;50.674;17.954;2022-07-10T03:24:35;10.68;;;7.53;;
21254;SDS011;10785;50.674;17.954;2022-07-10T03:27:03;8.73;;;6.78;;
21254;SDS011;10785;50.674;17.954;2022-07-10T03:29:33;10.65;;;6.03;;
21254;SDS011;10785;50.674;17.954;2022-07-10T03:32:01;7.90;;;6.53;;
21254;SDS011;10785;50.674;17.954;2022-07-10T03:34:31;6.43;;;5.75;;
21254;SDS011;10785;50.674;17.954;2022-07-10T03:37:02;6.05;;;5.32;;
21254;SDS011;10785;50.674;17.954;2022-07-10T03:39:30;9.18;;;6.13;;
21254;SDS011;10785;50.674;17.954;2022-07-10T03:41:59;7.05;;;5.05;;
21254;SDS011;10785;50.674;17.954;2022-07-10T03:44:28;6.25;;;4.40;;
21254;SDS011;10785;50.674;17.954;2022-07-10T03:46:56;5.32;;;4.82;;
21254;SDS011;10785;50.674;17.954;2022-07-10T03:49:25;6.35;;;5.18;;
21254;SDS011;10785;50.674;17.954;2022-07-10T03:51:54;6.45;;;5.18;;
21254;SDS011;10785;50.674;17.954;2022-07-10T03:54:24;6.03;;;5.38;;
21254;SDS011;10785;50.674;17.954;2022-07-10T03:56:52;8.05;;;5.40;;
21254;SDS011;10785;50.674;17.954;2022-07-10T03:59:38;7.32;;;6.22;;
21254;SDS011;10785;50.674;17.954;2022-07-10T04:02:07;6.63;;;6.03;;
21254;SDS011;10785;50.674;17.954;2022-07-10T04:04:36;8.30;;;6.28;;
21254;SDS011;10785;50.674;17.954;2022-07-10T04:07:05;10.50;;;9.00;;
21254;SDS011;10785;50.674;17.954;2022-07-10T04:09:35;10.05;;;8.77;;
21254;SDS011;10785;50.674;17.954;2022-07-10T04:12:04;15.95;;;13.55;;
21254;SDS011;10785;50.674;17.954;2022-07-10T04:14:33;10.73;;;8.18;;
21254;SDS011;10785;50.674;17.954;2022-07-10T04:17:01;10.75;;;7.85;;
21254;SDS011;10785;50.674;17.954;2022-07-10T04:19:30;8.70;;;5.97;;
21254;SDS011;10785;50.674;17.954;2022-07-10T04:21:58;7.97;;;5.38;;
21254;SDS011;10785;50.674;17.954;2022-07-10T04:24:27;10.55;;;4.95;;
21254;SDS011;10785;50.674;17.954;2022-07-10T04:26:57;11.60;;;4.90;;
21254;SDS011;10785;50.674;17.954;2022-07-10T04:29:26;6.45;;;4.18;;
21254;SDS011;10785;50.674;17.954;2022-07-10T04:31:54;10.93;;;5.18;;
21254;SDS011;10785;50.674;17.954;2022-07-10T04:34:23;10.45;;;4.07;;
21254;SDS011;10785;50.674;17.954;2022-07-10T04:36:52;7.85;;;4.35;;
21254;SDS011;10785;50.674;17.954;2022-07-10T04:39:21;6.28;;;4.53;;
21254;SDS011;10785;50.674;17.954;2022-07-10T04:41:49;7.28;;;4.47;;
21254;SDS011;10785;50.674;17.954;2022-07-10T04:44:19;7.47;;;3.60;;
21254;SDS011;10785;50.674;17.954;2022-07-10T04:46:48;5.82;;;3.42;;
21254;SDS011;10785;50.674;17.954;2022-07-10T04:49:16;7.88;;;3.20;;
21254;SDS011;10785;50.674;17.954;2022-07-10T04:51:45;3.47;;;2.70;;
21254;SDS011;10785;50.674;17.954;2022-07-10T04:54:13;5.40;;;2.78;;
21254;SDS011;10785;50.674;17.954;2022-07-10T04:56:42;4.15;;;2.92;;
21254;SDS011;10785;50.674;17.954;2022-07-10T04:59:10;8.50;;;3.20;;
21254;SDS011;10785;50.674;17.954;2022-07-10T05:01:40;6.20;;;2.75;;
21254;SDS011;10785;50.674;17.954;2022-07-10T05:04:09;5.70;;;3.10;;
21254;SDS011;10785;50.674;17.954;2022-07-10T05:06:38;5.35;;;3.13;;
21254;SDS011;10785;50.674;17.954;2022-07-10T05:09:07;6.47;;;2.95;;
21254;SDS011;10785;50.674;17.954;2022-07-10T05:11:35;4.43;;;3.20;;
21254;SDS011;10785;50.674;17.954;2022-07-10T05:14:04;3.15;;;1.92;;
21254;SDS011;10785;50.674;17.954;2022-07-10T05:16:33;8.88;;;3.00;;
21254;SDS011;10785;50.674;17.954;2022-07-10T05:19:03;6.28;;;2.50;;
21254;SDS011;10785;50.674;17.954;2022-07-10T05:21:31;5.40;;;2.58;;
21254;SDS011;10785;50.674;17.954;2022-07-10T05:24:00;7.43;;;2.63;;
21254;SDS011;10785;50.674;17.954;2022-07-10T05:26:28;5.18;;;2.38;;
21254;SDS011;10785;50.674;17.954;2022-07-10T05:28:57;9.00;;;2.53;;
21254;SDS011;10785;50.674;17.954;2022-07-10T05:31:25;7.10;;;2.28;;
21254;SDS011;10785;50.674;17.954;2022-07-10T05:33:54;6.47;;;2.50;;
21254;SDS011;10785;50.674;17.954;2022-07-10T05:36:24;8.20;;;2.28;;
21254;SDS011;10785;50.674;17.954;2022-07-10T05:38:53;7.90;;;2.58;;
21254;SDS011;10785;50.674;17.954;2022-07-10T05:41:21;6.10;;;2.20;;
21254;SDS011;10785;50.674;17.954;2022-07-10T05:43:50;5.38;;;1.75;;
21254;SDS011;10785;50.674;17.954;2022-07-10T05:46:18;6.13;;;2.00;;
21254;SDS011;10785;50.674;17.954;2022-07-10T05:48:47;6.70;;;1.60;;
21254;SDS011;10785;50.674;17.954;2022-07-10T05:51:16;3.58;;;1.75;;
21254;SDS011;10785;50.674;17.954;2022-07-10T05:54:06;5.82;;;2.22;;
21254;SDS011;10785;50.674;17.954;2022-07-10T05:56:35;7.03;;;2.47;;
21254;SDS011;10785;50.674;17.954;2022-07-10T05:59:03;5.57;;;1.65;;
21254;SDS011;10785;50.674;17.954;2022-07-10T06:01:32;5.32;;;2.10;;
21254;SDS011;10785;50.674;17.954;2022-07-10T06:04:00;9.30;;;1.88;;
21254;SDS011;10785;50.674;17.954;2022-07-10T06:06:29;6.45;;;2.05;;
21254;SDS011;10785;50.674;17.954;2022-07-10T06:08:58;5.72;;;2.25;;
21254;SDS011;10785;50.674;17.954;2022-07-10T06:11:28;5.43;;;1.65;;
21254;SDS011;10785;50.674;17.954;2022-07-10T06:13:57;3.88;;;1.48;;
21254;SDS011;10785;50.674;17.954;2022-07-10T06:16:25;11.75;;;2.03;;
21254;SDS011;10785;50.674;17.954;2022-07-10T06:18:54;5.00;;;1.77;;
21254;SDS011;10785;50.674;17.954;2022-07-10T06:21:23;7.40;;;1.60;;
21254;SDS011;10785;50.674;17.954;2022-07-10T06:23:51;3.90;;;1.27;;
21254;SDS011;10785;50.674;17.954;2022-07-10T06:26:20;6.28;;;2.17;;
21254;SDS011;10785;50.674;17.954;2022-07-10T06:28:50;5.82;;;1.95;;
21254;SDS011;10785;50.674;17.954;2022-07-10T06:31:19;4.15;;;1.40;;
21254;SDS011;10785;50.674;17.954;2022-07-10T06:33:47;7.30;;;1.77;;
21254;SDS011;10785;50.674;17.954;2022-07-10T06:36:16;7.32;;;2.08;;
21254;SDS011;10785;50.674;17.954;2022-07-10T06:38:50;4.85;;;1.95;;
21254;SDS011;10785;50.674;17.954;2022-07-10T06:41:19;4.35;;;1.98;;
21254;SDS011;10785;50.674;17.954;2022-07-10T06:43:47;5.93;;;1.73;;
21254;SDS011;10785;50.674;17.954;2022-07-10T06:46:17;7.50;;;2.40;;
21254;SDS011;10785;50.674;17.954;2022-07-10T06:48:46;5.75;;;1.80;;
21254;SDS011;10785;50.674;17.954;2022-07-10T06:51:13;2.20;;;1.52;;
21254;SDS011;10785;50.674;17.954;2022-07-10T06:53:44;5.53;;;1.67;;
21254;SDS011;10785;50.674;17.954;2022-07-10T06:56:13;9.00;;;2.55;;
21254;SDS011;10785;50.674;17.954;2022-07-10T06:58:43;5.88;;;2.13;;
21254;SDS011;10785;50.674;17.954;2022-07-10T07:01:14;5.38;;;1.95;;
21254;SDS011;10785;50.674;17.954;2022-07-10T07:03:44;6.43;;;2.70;;
21254;SDS011;10785;50.674;17.954;2022-07-10T07:06:12;9.68;;;2.22;;
21254;SDS011;10785;50.674;17.954;2022-07-10T07:08:41;5.97;;;3.15;;
21254;SDS011;10785;50.674;17.954;2022-07-10T07:11:10;6.70;;;3.80;;
21254;SDS011;10785;50.674;17.954;2022-07-10T07:13:39;11.25;;;6.38;;
21254;SDS011;10785;50.674;17.954;2022-07-10T07:16:09;8.90;;;4.32;;
21254;SDS011;10785;50.674;17.954;2022-07-10T07:18:40;8.55;;;3.58;;
21254;SDS011;10785;50.674;17.954;2022-07-10T07:21:19;10.52;;;4.35;;
21254;SDS011;10785;50.674;17.954;2022-07-10T07:24:05;9.43;;;3.47;;
21254;SDS011;10785;50.674;17.954;2022-07-10T07:26:34;7.25;;;3.15;;
21254;SDS011;10785;50.674;17.954;2022-07-10T07:29:02;5.65;;;2.55;;
21254;SDS011;10785;50.674;17.954;2022-07-10T07:31:31;9.77;;;2.80;;
21254;SDS011;10785;50.674;17.954;2022-07-10T07:34:00;7.50;;;2.97;;
21254;SDS011;10785;50.674;17.954;2022-07-10T07:36:30;7.35;;;3.95;;
21254;SDS011;10785;50.674;17.954;2022-07-10T07:38:59;7.20;;;3.63;;
21254;SDS011;10785;50.674;17.954;2022-07-10T07:41:28;6.65;;;3.00;;
21254;SDS011;10785;50.674;17.954;2022-07-10T07:43:56;4.57;;;2.40;;
21254;SDS011;10785;50.674;17.954;2022-07-10T07:46:25;6.40;;;1.70;;
21254;SDS011;10785;50.674;17.954;2022-07-10T07:48:54;2.85;;;1.63;;
21254;SDS011;10785;50.674;17.954;2022-07-10T07:51:24;5.22;;;1.60;;
21254;SDS011;10785;50.674;17.954;2022-07-10T07:53:53;3.28;;;1.50;;
21254;SDS011;10785;50.674;17.954;2022-07-10T07:56:25;5.50;;;1.60;;
21254;SDS011;10785;50.674;17.954;2022-07-10T07:58:54;2.55;;;1.30;;
21254;SDS011;10785;50.674;17.954;2022-07-10T08:01:24;5.90;;;1.77;;
21254;SDS011;10785;50.674;17.954;2022-07-10T08:03:52;2.22;;;1.40;;
21254;SDS011;10785;50.674;17.954;2022-07-10T08:06:34;7.90;;;1.80;;
21254;SDS011;10785;50.674;17.954;2022-07-10T08:09:04;4.38;;;1.30;;
21254;SDS011;10785;50.674;17.954;2022-07-10T08:11:33;4.03;;;1.65;;
21254;SDS011;10785;50.674;17.954;2022-07-10T08:14:02;3.20;;;1.33;;
21254;SDS011;10785;50.674;17.954;2022-07-10T08:16:30;6.47;;;1.70;;
21254;SDS011;10785;50.674;17.954;2022-07-10T08:18:59;6.07;;;1.33;;
21254;SDS011;10785;50.674;17.954;2022-07-10T08:21:28;3.65;;;0.90;;
21254;SDS011;10785;50.674;17.954;2022-07-10T08:23:57;5.43;;;1.30;;
21254;SDS011;10785;50.674;17.954;2022-07-10T08:26:27;6.70;;;1.40;;
21254;SDS011;10785;50.674;17.954;2022-07-10T08:28:55;6.00;;;1.42;;
21254;SDS011;10785;50.674;17.954;2022-07-10T08:31:24;6.00;;;1.40;;
21254;SDS011;10785;50.674;17.954;2022-07-10T08:33:53;4.72;;;1.35;;
21254;SDS011;10785;50.674;17.954;2022-07-10T08:36:21;3.67;;;1.23;;
21254;SDS011;10785;50.674;17.954;2022-07-10T08:39:05;4.30;;;1.10;;
21254;SDS011;10785;50.674;17.954;2022-07-10T08:41:36;5.85;;;1.30;;
21254;SDS011;10785;50.674;17.954;2022-07-10T08:44:05;2.00;;;0.77;;
21254;SDS011;10785;50.674;17.954;2022-07-10T08:46:39;2.25;;;0.70;;
21254;SDS011;10785;50.674;17.954;2022-07-10T08:49:09;3.78;;;1.10;;
21254;SDS011;10785;50.674;17.954;2022-07-10T08:51:40;3.38;;;0.98;;
21254;SDS011;10785;50.674;17.954;2022-07-10T08:54:19;4.97;;;1.40;;
21254;SDS011;10785;50.674;17.954;2022-07-10T08:56:50;4.53;;;1.08;;
21254;SDS011;10785;50.674;17.954;2022-07-10T08:59:19;2.70;;;1.00;;
21254;SDS011;10785;50.674;17.954;2022-07-10T09:01:57;2.60;;;1.02;;
21254;SDS011;10785;50.674;17.954;2022-07-10T09:04:27;3.15;;;1.38;;
21254;SDS011;10785;50.674;17.954;2022-07-10T09:06:56;9.57;;;2.35;;
21254;SDS011;10785;50.674;17.954;2022-07-10T09:09:24;3.83;;;1.27;;
21254;SDS011;10785;50.674;17.954;2022-07-10T09:11:56;3.55;;;1.50;;
21254;SDS011;10785;50.674;17.954;2022-07-10T09:14:26;3.03;;;1.52;;
21254;SDS011;10785;50.674;17.954;2022-07-10T09:17:01;2.85;;;1.23;;
21254;SDS011;10785;50.674;17.954;2022-07-10T09:19:30;6.97;;;1.30;;
21254;SDS011;10785;50.674;17.954;2022-07-10T09:22:01;6.38;;;1.45;;
21254;SDS011;10785;50.674;17.954;2022-07-10T09:24:34;6.13;;;1.63;;
21254;SDS011;10785;50.674;17.954;2022-07-10T09:27:05;4.32;;;1.38;;
21254;SDS011;10785;50.674;17.954;2022-07-10T09:29:44;3.15;;;1.40;;
21254;SDS011;10785;50.674;17.954;2022-07-10T09:32:13;4.85;;;1.60;;
21254;SDS011;10785;50.674;17.954;2022-07-10T09:34:43;6.13;;;1.42;;
21254;SDS011;10785;50.674;17.954;2022-07-10T09:37:17;6.35;;;1.40;;
21254;SDS011;10785;50.674;17.954;2022-07-10T09:39:53;5.90;;;1.60;;
21254;SDS011;10785;50.674;17.954;2022-07-10T09:42:33;3.53;;;1.55;;
21254;SDS011;10785;50.674;17.954;2022-07-10T09:45:12;4.38;;;1.48;;
21254;SDS011;10785;50.674;17.954;2022-07-10T09:47:53;6.57;;;1.25;;
21254;SDS011;10785;50.674;17.954;2022-07-10T09:50:24;6.75;;;1.40;;
21254;SDS011;10785;50.674;17.954;2022-07-10T09:52:54;4.28;;;1.63;;
21254;SDS011;10785;50.674;17.954;2022-07-10T09:55:25;13.80;;;2.08;;
21254;SDS011;10785;50.674;17.954;2022-07-10T09:57:58;7.00;;;1.30;;
21254;SDS011;10785;50.674;17.954;2022-07-10T10:00:28;3.20;;;1.13;;
21254;SDS011;10785;50.674;17.954;2022-07-10T10:02:59;6.95;;;1.30;;
21254;SDS011;10785;50.674;17.954;2022-07-10T10:05:32;3.67;;;1.15;;
21254;SDS011;10785;50.674;17.954;2022-07-10T10:08:14;4.57;;;1.15;;
21254;SDS011;10785;50.674;17.954;2022-07-10T10:10:47;6.15;;;1.38;;
21254;SDS011;10785;50.674;17.954;2022-07-10T10:13:19;3.28;;;1.08;;
21254;SDS011;10785;50.674;17.954;2022-07-10T10:15:49;2.00;;;1.05;;
21254;SDS011;10785;50.674;17.954;2022-07-10T10:18:19;5.50;;;1.17;;
21254;SDS011;10785;50.674;17.954;2022-07-10T10:20:49;5.68;;;1.48;;
21254;SDS011;10785;50.674;17.954;2022-07-10T10:23:19;6.30;;;1.30;;
21254;SDS011;10785;50.674;17.954;2022-07-10T10:25:49;5.18;;;1.10;;
21254;SDS011;10785;50.674;17.954;2022-07-10T10:28:20;2.33;;;1.08;;
21254;SDS011;10785;50.674;17.954;2022-07-10T10:30:51;4.50;;;1.50;;
21254;SDS011;10785;50.674;17.954;2022-07-10T10:36:12;2.58;;;1.63;;
21254;SDS011;10785;50.674;17.954;2022-07-10T10:41:36;5.40;;;1.45;;
21254;SDS011;10785;50.674;17.954;2022-07-10T10:44:26;6.03;;;1.38;;
21254;SDS011;10785;50.674;17.954;2022-07-10T10:47:03;2.63;;;1.17;;
21254;SDS011;10785;50.674;17.954;2022-07-10T10:49:53;4.22;;;1.35;;
21254;SDS011;10785;50.674;17.954;2022-07-10T10:52:29;4.60;;;1.25;;
21254;SDS011;10785;50.674;17.954;2022-07-10T10:54:59;5.78;;;1.60;;
21254;SDS011;10785;50.674;17.954;2022-07-10T10:57:41;2.42;;;1.23;;
21254;SDS011;10785;50.674;17.954;2022-07-10T11:03:18;6.63;;;1.50;;
21254;SDS011;10785;50.674;17.954;2022-07-10T11:05:48;5.80;;;1.27;;
21254;SDS011;10785;50.674;17.954;2022-07-10T11:08:37;3.25;;;1.20;;
21254;SDS011;10785;50.674;17.954;2022-07-10T11:14:09;3.85;;;1.00;;
21254;SDS011;10785;50.674;17.954;2022-07-10T11:16:47;1.70;;;1.08;;
21254;SDS011;10785;50.674;17.954;2022-07-10T11:19:20;3.22;;;1.10;;
21254;SDS011;10785;50.674;17.954;2022-07-10T11:21:52;5.90;;;1.60;;
21254;SDS011;10785;50.674;17.954;2022-07-10T11:24:38;5.38;;;1.15;;
21254;SDS011;10785;50.674;17.954;2022-07-10T11:27:15;6.93;;;1.80;;
21254;SDS011;10785;50.674;17.954;2022-07-10T11:29:57;5.13;;;1.35;;
21254;SDS011;10785;50.674;17.954;2022-07-10T11:32:29;5.18;;;1.13;;
21254;SDS011;10785;50.674;17.954;2022-07-10T11:34:57;2.83;;;0.93;;
21254;SDS011;10785;50.674;17.954;2022-07-10T11:37:26;5.40;;;1.17;;
21254;SDS011;10785;50.674;17.954;2022-07-10T11:40:09;5.75;;;1.20;;
21254;SDS011;10785;50.674;17.954;2022-07-10T11:42:50;2.72;;;0.73;;
21254;SDS011;10785;50.674;17.954;2022-07-10T11:45:23;3.88;;;1.33;;
21254;SDS011;10785;50.674;17.954;2022-07-10T11:47:58;3.58;;;1.13;;
21254;SDS011;10785;50.674;17.954;2022-07-10T11:50:27;1.88;;;1.20;;
21254;SDS011;10785;50.674;17.954;2022-07-10T11:53:02;2.42;;;0.80;;
21254;SDS011;10785;50.674;17.954;2022-07-10T11:55:31;1.55;;;1.00;;
21254;SDS011;10785;50.674;17.954;2022-07-10T11:58:13;2.60;;;1.02;;
21254;SDS011;10785;50.674;17.954;2022-07-10T12:00:42;2.03;;;0.90;;
21254;SDS011;10785;50.674;17.954;2022-07-10T12:03:19;3.28;;;1.15;;
21254;SDS011;10785;50.674;17.954;2022-07-10T12:05:55;1.60;;;1.13;;
21254;SDS011;10785;50.674;17.954;2022-07-10T12:08:30;2.30;;;0.80;;
21254;SDS011;10785;50.674;17.954;2022-07-10T12:11:11;4.30;;;0.80;;
21254;SDS011;10785;50.674;17.954;2022-07-10T12:13:40;1.70;;;0.85;;
21254;SDS011;10785;50.674;17.954;2022-07-10T12:16:09;0.80;;;0.65;;
21254;SDS011;10785;50.674;17.954;2022-07-10T12:18:39;1.77;;;0.60;;
21254;SDS011;10785;50.674;17.954;2022-07-10T12:21:11;2.13;;;0.80;;
21254;SDS011;10785;50.674;17.954;2022-07-10T12:23:41;0.90;;;0.60;;
21254;SDS011;10785;50.674;17.954;2022-07-10T12:26:13;2.22;;;0.75;;
21254;SDS011;10785;50.674;17.954;2022-07-10T12:28:49;4.60;;;0.80;;
21254;SDS011;10785;50.674;17.954;2022-07-10T12:31:25;1.73;;;0.70;;
21254;SDS011;10785;50.674;17.954;2022-07-10T12:33:57;1.98;;;1.15;;
21254;SDS011;10785;50.674;17.954;2022-07-10T12:36:41;1.70;;;0.85;;
21254;SDS011;10785;50.674;17.954;2022-07-10T12:39:14;2.75;;;1.20;;
21254;SDS011;10785;50.674;17.954;2022-07-10T12:41:53;3.85;;;1.00;;
21254;SDS011;10785;50.674;17.954;2022-07-10T12:44:36;1.70;;;1.00;;
21254;SDS011;10785;50.674;17.954;2022-07-10T12:47:07;3.90;;;0.82;;
21254;SDS011;10785;50.674;17.954;2022-07-10T12:49:53;3.53;;;1.00;;
21254;SDS011;10785;50.674;17.954;2022-07-10T12:52:24;1.40;;;1.10;;
21254;SDS011;10785;50.674;17.954;2022-07-10T12:55:07;4.43;;;1.33;;
21254;SDS011;10785;50.674;17.954;2022-07-10T12:57:47;1.83;;;0.98;;
21254;SDS011;10785;50.674;17.954;2022-07-10T13:00:17;2.45;;;1.10;;
21254;SDS011;10785;50.674;17.954;2022-07-10T13:02:47;0.60;;;0.50;;
21254;SDS011;10785;50.674;17.954;2022-07-10T13:05:32;1.85;;;0.80;;
21254;SDS011;10785;50.674;17.954;2022-07-10T13:08:05;2.55;;;1.05;;
21254;SDS011;10785;50.674;17.954;2022-07-10T13:10:37;1.98;;;1.00;;
21254;SDS011;10785;50.674;17.954;2022-07-10T13:13:09;1.85;;;1.00;;
21254;SDS011;10785;50.674;17.954;2022-07-10T13:15:38;1.42;;;1.13;;
21254;SDS011;10785;50.674;17.954;2022-07-10T13:18:13;3.05;;;1.20;;
21254;SDS011;10785;50.674;17.954;2022-07-10T13:20:46;4.78;;;1.30;;
21254;SDS011;10785;50.674;17.954;2022-07-10T13:23:15;3.95;;;2.05;;
21254;SDS011;10785;50.674;17.954;2022-07-10T13:25:48;3.00;;;1.40;;
21254;SDS011;10785;50.674;17.954;2022-07-10T13:28:17;2.20;;;1.50;;
21254;SDS011;10785;50.674;17.954;2022-07-10T13:30:46;2.17;;;1.42;;
21254;SDS011;10785;50.674;17.954;2022-07-10T13:33:14;3.05;;;1.20;;
21254;SDS011;10785;50.674;17.954;2022-07-10T13:35:45;1.73;;;1.10;;
21254;SDS011;10785;50.674;17.954;2022-07-10T13:38:15;5.13;;;1.10;;
21254;SDS011;10785;50.674;17.954;2022-07-10T13:40:45;3.40;;;1.08;;
21254;SDS011;10785;50.674;17.954;2022-07-10T13:43:14;3.03;;;0.85;;
21254;SDS011;10785;50.674;17.954;2022-07-10T13:45:44;3.25;;;1.27;;
21254;SDS011;10785;50.674;17.954;2022-07-10T13:48:14;4.15;;;1.00;;
21254;SDS011;10785;50.674;17.954;2022-07-10T13:50:44;12.90;;;7.60;;
21254;SDS011;10785;50.674;17.954;2022-07-10T13:53:14;2.33;;;0.90;;
21254;SDS011;10785;50.674;17.954;2022-07-10T13:55:43;1.20;;;1.10;;
21254;SDS011;10785;50.674;17.954;2022-07-10T13:58:12;2.90;;;0.98;;
21254;SDS011;10785;50.674;17.954;2022-07-10T14:00:42;0.90;;;0.60;;
21254;SDS011;10785;50.674;17.954;2022-07-10T14:03:10;2.75;;;0.90;;
21254;SDS011;10785;50.674;17.954;2022-07-10T14:05:39;1.25;;;0.85;;
21254;SDS011;10785;50.674;17.954;2022-07-10T14:08:09;2.50;;;0.70;;
21254;SDS011;10785;50.674;17.954;2022-07-10T14:10:37;2.72;;;0.82;;
21254;SDS011;10785;50.674;17.954;2022-07-10T14:13:06;3.65;;;1.20;;
21254;SDS011;10785;50.674;17.954;2022-07-10T14:15:38;2.83;;;1.00;;
21254;SDS011;10785;50.674;17.954;2022-07-10T14:18:07;2.92;;;0.90;;
21254;SDS011;10785;50.674;17.954;2022-07-10T14:20:37;2.33;;;1.20;;
21254;SDS011;10785;50.674;17.954;2022-07-10T14:23:25;1.55;;;0.85;;
21254;SDS011;10785;50.674;17.954;2022-07-10T14:25:53;3.35;;;1.08;;
21254;SDS011;10785;50.674;17.954;2022-07-10T14:28:22;1.13;;;0.82;;
21254;SDS011;10785;50.674;17.954;2022-07-10T14:30:50;1.55;;;0.90;;
21254;SDS011;10785;50.674;17.954;2022-07-10T14:33:19;4.88;;;1.13;;
21254;SDS011;10785;50.674;17.954;2022-07-10T14:35:48;1.83;;;0.90;;
21254;SDS011;10785;50.674;17.954;2022-07-10T14:38:16;3.00;;;1.08;;
21254;SDS011;10785;50.674;17.954;2022-07-10T14:40:46;5.70;;;1.35;;
21254;SDS011;10785;50.674;17.954;2022-07-10T14:43:15;7.35;;;1.23;;
21254;SDS011;10785;50.674;17.954;2022-07-10T14:45:43;9.30;;;1.10;;
21254;SDS011;10785;50.674;17.954;2022-07-10T14:48:17;2.53;;;0.85;;
21254;SDS011;10785;50.674;17.954;2022-07-10T14:50:46;1.75;;;1.05;;
21254;SDS011;10785;50.674;17.954;2022-07-10T14:53:14;3.15;;;1.02;;
21254;SDS011;10785;50.674;17.954;2022-07-10T14:55:43;3.38;;;1.10;;
21254;SDS011;10785;50.674;17.954;2022-07-10T14:58:13;1.77;;;0.82;;
21254;SDS011;10785;50.674;17.954;2022-07-10T15:00:42;1.77;;;0.93;;
21254;SDS011;10785;50.674;17.954;2022-07-10T15:03:11;3.00;;;1.63;;
21254;SDS011;10785;50.674;17.954;2022-07-10T15:05:40;2.53;;;0.88;;
21254;SDS011;10785;50.674;17.954;2022-07-10T15:08:08;5.40;;;0.82;;